createdAt,value
2018-01-04T00:00:00.690Z,789.72
2018-01-04T00:00:04.714Z,789.72
2018-01-04T00:00:08.964Z,789.73
2018-01-04T00:00:13.098Z,789.73
2018-01-04T00:00:17.012Z,789.74
2018-01-04T00:00:21.431Z,789.72
2018-01-04T00:00:25.674Z,789.68
2018-01-04T00:00:29.803Z,789.72
2018-01-04T00:00:33.935Z,789.73
2018-01-04T00:00:38.166Z,789.72
2018-01-04T00:00:42.276Z,789.72
2018-01-04T00:00:46.211Z,789.72
2018-01-04T00:00:50.342Z,789.72
2018-01-04T00:00:54.378Z,789.7
2018-01-04T00:00:58.625Z,789.72
2018-01-04T00:01:02.875Z,789.71
2018-01-04T00:01:07.008Z,789.7
2018-01-04T00:01:11.279Z,789.67
2018-01-04T00:01:15.060Z,789.68
2018-01-04T00:01:19.382Z,789.69
2018-01-04T00:01:23.714Z,789.67
2018-01-04T00:01:28.037Z,789.69
2018-01-04T00:01:32.058Z,789.7
2018-01-04T00:01:36.175Z,789.66
2018-01-04T00:01:40.291Z,789.67
2018-01-04T00:01:44.415Z,789.63
2018-01-04T00:01:48.558Z,789.66
2018-01-04T00:01:52.709Z,789.64
2018-01-04T00:01:56.945Z,789.63
2018-01-04T00:02:01.064Z,789.63
2018-01-04T00:02:05.414Z,789.64
2018-01-04T00:02:09.521Z,789.64
2018-01-04T00:02:13.645Z,789.62
2018-01-04T00:02:17.759Z,789.61
2018-01-04T00:02:21.989Z,789.61
2018-01-04T00:02:26.038Z,789.62
2018-01-04T00:02:30.396Z,789.59
2018-01-04T00:02:34.416Z,789.61
2018-01-04T00:02:38.652Z,789.6
2018-01-04T00:02:42.765Z,789.61
2018-01-04T00:02:46.898Z,789.59
2018-01-04T00:02:50.905Z,789.61
2018-01-04T00:02:55.235Z,789.55
2018-01-04T00:02:59.463Z,789.57
2018-01-04T00:03:03.956Z,789.54
2018-01-04T00:03:08.092Z,789.54
2018-01-04T00:03:12.210Z,789.59
2018-01-04T00:03:16.129Z,789.55
2018-01-04T00:03:19.951Z,789.54
2018-01-04T00:03:24.126Z,789.55
2018-01-04T00:03:28.464Z,789.49
2018-01-04T00:03:32.704Z,789.5
2018-01-04T00:03:36.948Z,789.51
2018-01-04T00:03:41.190Z,789.49
2018-01-04T00:03:45.413Z,789.52
2018-01-04T00:03:49.538Z,789.49
2018-01-04T00:03:53.798Z,789.46
2018-01-04T00:03:57.826Z,789.48
2018-01-04T00:04:02.065Z,789.47
2018-01-04T00:04:06.413Z,789.45
2018-01-04T00:04:10.536Z,789.46
2018-01-04T00:04:14.557Z,789.47
2018-01-04T00:04:18.812Z,789.46
2018-01-04T00:04:23.036Z,789.45
2018-01-04T00:04:27.040Z,789.44
2018-01-04T00:04:31.401Z,789.45
2018-01-04T00:04:35.421Z,789.43
2018-01-04T00:04:39.438Z,789.44
2018-01-04T00:04:43.464Z,789.39
2018-01-04T00:04:47.690Z,789.46
2018-01-04T00:04:51.917Z,789.42
2018-01-04T00:04:55.955Z,789.42
2018-01-04T00:05:00.096Z,789.41
2018-01-04T00:05:04.579Z,789.41
2018-01-04T00:05:08.921Z,789.45
2018-01-04T00:05:13.147Z,789.4
2018-01-04T00:05:16.947Z,789.39
2018-01-04T00:05:21.191Z,789.4
2018-01-04T00:05:25.420Z,789.39
2018-01-04T00:05:29.755Z,789.39
2018-01-04T00:05:33.982Z,789.34
2018-01-04T00:05:38.376Z,789.34
2018-01-04T00:05:42.721Z,789.38
2018-01-04T00:05:46.849Z,789.36
2018-01-04T00:05:51.245Z,789.39
2018-01-04T00:05:55.474Z,789.39
2018-01-04T00:05:59.833Z,789.35
2018-01-04T00:06:04.213Z,789.36
2018-01-04T00:06:08.556Z,789.36
2018-01-04T00:06:12.700Z,789.4
2018-01-04T00:06:16.613Z,789.36
2018-01-04T00:06:20.643Z,789.34
2018-01-04T00:06:24.873Z,789.35
2018-01-04T00:06:28.997Z,789.41
2018-01-04T00:06:33.288Z,789.39
2018-01-04T00:06:37.634Z,789.34
2018-01-04T00:06:41.656Z,789.36
2018-01-04T00:06:45.573Z,789.38
2018-01-04T00:06:49.599Z,789.34
2018-01-04T00:06:53.825Z,789.38
2018-01-04T00:06:58.045Z,789.35
2018-01-04T00:07:02.169Z,789.38
2018-01-04T00:07:06.397Z,789.35
2018-01-04T00:07:10.733Z,789.33
2018-01-04T00:07:14.851Z,789.35
2018-01-04T00:07:19.087Z,789.33
2018-01-04T00:07:23.218Z,789.34
2018-01-04T00:07:27.348Z,789.29
2018-01-04T00:07:31.579Z,789.27
2018-01-04T00:07:35.701Z,789.29
2018-01-04T00:07:39.939Z,789.31
2018-01-04T00:07:44.279Z,789.29
2018-01-04T00:07:48.504Z,789.3
2018-01-04T00:07:52.433Z,789.31
2018-01-04T00:07:56.447Z,789.33
2018-01-04T00:08:00.679Z,789.31
2018-01-04T00:08:04.925Z,789.32
2018-01-04T00:08:09.163Z,789.33
2018-01-04T00:08:13.392Z,789.3
2018-01-04T00:08:17.397Z,789.26
2018-01-04T00:08:21.416Z,789.27
2018-01-04T00:08:25.731Z,789.29
2018-01-04T00:08:29.959Z,789.29
2018-01-04T00:08:33.983Z,789.31
2018-01-04T00:08:38.320Z,789.29
2018-01-04T00:08:42.664Z,789.3
2018-01-04T00:08:47.003Z,789.28
2018-01-04T00:08:51.252Z,789.28
2018-01-04T00:08:55.385Z,789.3
2018-01-04T00:08:59.717Z,789.3
2018-01-04T00:09:03.978Z,789.31
2018-01-04T00:09:08.318Z,789.28
2018-01-04T00:09:12.753Z,789.28
2018-01-04T00:09:16.781Z,789.25
2018-01-04T00:09:20.909Z,789.26
2018-01-04T00:09:25.042Z,789.27
2018-01-04T00:09:29.167Z,789.24
2018-01-04T00:09:33.194Z,789.21
2018-01-04T00:09:37.321Z,789.23
2018-01-04T00:09:41.455Z,789.24
2018-01-04T00:09:45.490Z,789.24
2018-01-04T00:09:49.616Z,789.23
2018-01-04T00:09:53.730Z,789.18
2018-01-04T00:09:57.857Z,789.27
2018-01-04T00:10:02.085Z,789.27
2018-01-04T00:10:06.309Z,789.21
2018-01-04T00:10:10.652Z,789.22
2018-01-04T00:10:14.681Z,789.17
2018-01-04T00:10:18.809Z,789.19
2018-01-04T00:10:23.334Z,789.21
2018-01-04T00:10:27.688Z,789.21
2018-01-04T00:10:31.910Z,789.23
2018-01-04T00:10:36.246Z,789.2
2018-01-04T00:10:40.595Z,789.21
2018-01-04T00:10:44.836Z,789.17
2018-01-04T00:10:49.062Z,789.2
2018-01-04T00:10:53.095Z,789.19
2018-01-04T00:10:57.341Z,789.14
2018-01-04T00:11:01.480Z,789.14
2018-01-04T00:11:06.050Z,789.19
2018-01-04T00:11:10.174Z,789.15
2018-01-04T00:11:14.192Z,789.18
2018-01-04T00:11:18.415Z,789.19
2018-01-04T00:11:22.529Z,789.18
2018-01-04T00:11:26.760Z,789.19
2018-01-04T00:11:31.001Z,789.15
2018-01-04T00:11:35.133Z,789.17
2018-01-04T00:11:39.142Z,789.17
2018-01-04T00:11:43.366Z,789.16
2018-01-04T00:11:47.592Z,789.17
2018-01-04T00:11:51.824Z,789.2
2018-01-04T00:11:55.953Z,789.19
2018-01-04T00:12:00.186Z,789.14
2018-01-04T00:12:04.313Z,789.12
2018-01-04T00:12:08.459Z,789.17
2018-01-04T00:12:12.802Z,789.18
2018-01-04T00:12:17.029Z,789.17
2018-01-04T00:12:21.361Z,789.17
2018-01-04T00:12:25.603Z,789.15
2018-01-04T00:12:29.840Z,789.15
2018-01-04T00:12:34.184Z,789.16
2018-01-04T00:12:38.433Z,789.16
2018-01-04T00:12:42.775Z,789.15
2018-01-04T00:12:47.130Z,789.18
2018-01-04T00:12:51.485Z,789.14
2018-01-04T00:12:55.506Z,789.19
2018-01-04T00:12:59.418Z,789.11
2018-01-04T00:13:03.646Z,789.12
2018-01-04T00:13:07.877Z,789.11
2018-01-04T00:13:12.001Z,789.1
2018-01-04T00:13:16.033Z,789.11
2018-01-04T00:13:20.158Z,789.1
2018-01-04T00:13:24.187Z,789.07
2018-01-04T00:13:28.540Z,789.11
2018-01-04T00:13:32.768Z,789.1
2018-01-04T00:13:36.889Z,789.16
2018-01-04T00:13:41.024Z,789.13
2018-01-04T00:13:45.158Z,789.16
2018-01-04T00:13:49.514Z,789.16
2018-01-04T00:13:53.747Z,789.15
2018-01-04T00:13:58.094Z,789.18
2018-01-04T00:14:02.610Z,789.15
2018-01-04T00:14:06.850Z,789.17
2018-01-04T00:14:10.666Z,789.17
2018-01-04T00:14:14.795Z,789.17
2018-01-04T00:14:18.977Z,789.17
2018-01-04T00:14:23.202Z,789.15
2018-01-04T00:14:27.430Z,789.15
2018-01-04T00:14:31.750Z,789.1
2018-01-04T00:14:36.079Z,789.14
2018-01-04T00:14:40.197Z,789.16
2018-01-04T00:14:44.328Z,789.2
2018-01-04T00:14:48.561Z,789.15
2018-01-04T00:14:52.687Z,789.16
2018-01-04T00:14:56.922Z,789.15
2018-01-04T00:15:00.836Z,789.17
2018-01-04T00:15:05.067Z,789.17
2018-01-04T00:15:09.310Z,789.17
2018-01-04T00:15:13.647Z,789.16
2018-01-04T00:15:17.662Z,789.13
2018-01-04T00:15:21.805Z,789.17
2018-01-04T00:15:26.034Z,789.15
2018-01-04T00:15:30.050Z,789.16
2018-01-04T00:15:34.156Z,789.19
2018-01-04T00:15:38.562Z,789.16
2018-01-04T00:15:42.806Z,789.16
2018-01-04T00:15:47.034Z,789.18
2018-01-04T00:15:51.368Z,789.21
2018-01-04T00:15:55.595Z,789.22
2018-01-04T00:15:59.722Z,789.16
2018-01-04T00:16:03.840Z,789.16
2018-01-04T00:16:07.865Z,789.16
2018-01-04T00:16:11.779Z,789.16
2018-01-04T00:16:16.103Z,789.15
2018-01-04T00:16:20.218Z,789.16
2018-01-04T00:16:24.238Z,789.18
2018-01-04T00:16:28.470Z,789.21
2018-01-04T00:16:32.809Z,789.22
2018-01-04T00:16:37.142Z,789.19
2018-01-04T00:16:41.064Z,789.21
2018-01-04T00:16:45.351Z,789.23
2018-01-04T00:16:49.382Z,789.21
2018-01-04T00:16:53.521Z,789.17
2018-01-04T00:16:57.854Z,789.17
2018-01-04T00:17:01.872Z,789.2
2018-01-04T00:17:06.060Z,789.19
2018-01-04T00:17:10.099Z,789.21
2018-01-04T00:17:14.333Z,789.23
2018-01-04T00:17:18.560Z,789.23
2018-01-04T00:17:22.800Z,789.24
2018-01-04T00:17:27.098Z,789.21
2018-01-04T00:17:31.442Z,789.23
2018-01-04T00:17:35.570Z,789.25
2018-01-04T00:17:39.700Z,789.23
2018-01-04T00:17:43.918Z,789.22
2018-01-04T00:17:48.144Z,789.23
2018-01-04T00:17:52.370Z,789.22
2018-01-04T00:17:56.709Z,789.22
2018-01-04T00:18:01.034Z,789.22
2018-01-04T00:18:05.540Z,789.21
2018-01-04T00:18:09.880Z,789.23
2018-01-04T00:18:14.009Z,789.21
2018-01-04T00:18:18.139Z,789.22
2018-01-04T00:18:22.474Z,789.25
2018-01-04T00:18:26.719Z,789.22
2018-01-04T00:18:30.843Z,789.22
2018-01-04T00:18:35.181Z,789.23
2018-01-04T00:18:39.219Z,789.21
2018-01-04T00:18:43.314Z,789.22
2018-01-04T00:18:47.548Z,789.24
2018-01-04T00:18:51.819Z,789.24
2018-01-04T00:18:56.064Z,789.23
2018-01-04T00:19:00.277Z,789.22
2018-01-04T00:19:04.302Z,789.24
2018-01-04T00:19:08.640Z,789.23
2018-01-04T00:19:12.888Z,789.23
2018-01-04T00:19:16.810Z,789.24
2018-01-04T00:19:20.826Z,789.18
2018-01-04T00:19:24.967Z,789.22
2018-01-04T00:19:28.973Z,789.21
2018-01-04T00:19:33.318Z,789.22
2018-01-04T00:19:37.451Z,789.24
2018-01-04T00:19:41.690Z,789.17
2018-01-04T00:19:45.938Z,789.2
2018-01-04T00:19:50.267Z,789.17
2018-01-04T00:19:54.504Z,789.23
2018-01-04T00:19:58.547Z,789.2
2018-01-04T00:20:02.786Z,789.24
2018-01-04T00:20:06.911Z,789.18
2018-01-04T00:20:10.946Z,789.16
2018-01-04T00:20:15.171Z,789.22
2018-01-04T00:20:19.207Z,789.2
2018-01-04T00:20:23.448Z,789.18
2018-01-04T00:20:27.788Z,789.2
2018-01-04T00:20:31.926Z,789.16
2018-01-04T00:20:36.060Z,789.25
2018-01-04T00:20:40.208Z,789.26
2018-01-04T00:20:44.548Z,789.28
2018-01-04T00:20:48.778Z,789.28
2018-01-04T00:20:52.889Z,789.27
2018-01-04T00:20:57.013Z,789.27
2018-01-04T00:21:01.018Z,789.23
2018-01-04T00:21:05.291Z,789.25
2018-01-04T00:21:09.299Z,789.27
2018-01-04T00:21:13.627Z,789.25
2018-01-04T00:21:17.653Z,789.27
2018-01-04T00:21:21.793Z,789.28
2018-01-04T00:21:25.926Z,789.27
2018-01-04T00:21:30.159Z,789.28
2018-01-04T00:21:34.172Z,789.28
2018-01-04T00:21:38.288Z,789.28
2018-01-04T00:21:42.523Z,789.3
2018-01-04T00:21:46.753Z,789.29
2018-01-04T00:21:50.999Z,789.31
2018-01-04T00:21:55.221Z,789.3
2018-01-04T00:21:59.360Z,789.31
2018-01-04T00:22:03.597Z,789.3
2018-01-04T00:22:07.605Z,789.32
2018-01-04T00:22:11.839Z,789.32
2018-01-04T00:22:16.068Z,789.27
2018-01-04T00:22:20.344Z,789.35
2018-01-04T00:22:24.680Z,789.32
2018-01-04T00:22:28.837Z,789.3
2018-01-04T00:22:33.074Z,789.29
2018-01-04T00:22:37.303Z,789.32
2018-01-04T00:22:41.540Z,789.35
2018-01-04T00:22:45.769Z,789.32
2018-01-04T00:22:50.110Z,789.33
2018-01-04T00:22:54.463Z,789.31
2018-01-04T00:22:58.789Z,789.35
2018-01-04T00:23:03.314Z,789.33
2018-01-04T00:23:07.675Z,789.36
2018-01-04T00:23:11.704Z,789.36
2018-01-04T00:23:15.840Z,789.37
2018-01-04T00:23:20.177Z,789.37
2018-01-04T00:23:24.514Z,789.38
2018-01-04T00:23:28.857Z,789.37
2018-01-04T00:23:33.199Z,789.35
2018-01-04T00:23:37.429Z,789.28
2018-01-04T00:23:41.772Z,789.35
2018-01-04T00:23:45.785Z,789.32
2018-01-04T00:23:49.889Z,789.33
2018-01-04T00:23:54.120Z,789.33
2018-01-04T00:23:58.453Z,789.34
2018-01-04T00:24:02.937Z,789.33
2018-01-04T00:24:06.965Z,789.34
2018-01-04T00:24:10.988Z,789.33
2018-01-04T00:24:15.008Z,789.32
2018-01-04T00:24:19.226Z,789.34
2018-01-04T00:24:23.339Z,789.33
2018-01-04T00:24:27.466Z,789.34
2018-01-04T00:24:31.856Z,789.36
2018-01-04T00:24:35.889Z,789.41
2018-01-04T00:24:40.000Z,789.44
2018-01-04T00:24:44.352Z,789.43
2018-01-04T00:24:48.695Z,789.38
2018-01-04T00:24:53.037Z,789.39
2018-01-04T00:24:57.164Z,789.36
2018-01-04T00:25:01.404Z,789.35
2018-01-04T00:25:05.989Z,789.38
2018-01-04T00:25:10.127Z,789.38
2018-01-04T00:25:14.471Z,789.4
2018-01-04T00:25:18.490Z,789.39
2018-01-04T00:25:22.609Z,789.41
2018-01-04T00:25:27.000Z,789.4
2018-01-04T00:25:31.340Z,789.43
2018-01-04T00:25:35.463Z,789.41
2018-01-04T00:25:39.698Z,789.39
2018-01-04T00:25:43.929Z,789.38
2018-01-04T00:25:48.155Z,789.4
2018-01-04T00:25:52.397Z,789.38
2018-01-04T00:25:56.528Z,789.39
2018-01-04T00:26:00.444Z,789.36
2018-01-04T00:26:04.551Z,789.35
2018-01-04T00:26:08.672Z,789.39
2018-01-04T00:26:12.699Z,789.42
2018-01-04T00:26:16.827Z,789.39
2018-01-04T00:26:21.048Z,789.36
2018-01-04T00:26:25.268Z,789.4
2018-01-04T00:26:29.405Z,789.35
2018-01-04T00:26:33.638Z,789.32
2018-01-04T00:26:37.982Z,789.4
2018-01-04T00:26:42.212Z,789.41
2018-01-04T00:26:46.405Z,789.36
2018-01-04T00:26:50.740Z,789.36
2018-01-04T00:26:54.952Z,789.37
2018-01-04T00:26:59.176Z,789.36
2018-01-04T00:27:03.814Z,789.4
2018-01-04T00:27:08.057Z,789.38
2018-01-04T00:27:12.081Z,789.41
2018-01-04T00:27:16.114Z,789.41
2018-01-04T00:27:20.462Z,789.35
2018-01-04T00:27:24.707Z,789.37
2018-01-04T00:27:29.051Z,789.38
2018-01-04T00:27:33.401Z,789.38
2018-01-04T00:27:37.532Z,789.37
2018-01-04T00:27:41.562Z,789.35
2018-01-04T00:27:45.903Z,789.35
2018-01-04T00:27:50.038Z,789.37
2018-01-04T00:27:54.381Z,789.37
2018-01-04T00:27:58.596Z,789.38
2018-01-04T00:28:02.728Z,789.35
2018-01-04T00:28:06.747Z,789.33
2018-01-04T00:28:10.760Z,789.39
2018-01-04T00:28:14.888Z,789.37
2018-01-04T00:28:18.804Z,789.32
2018-01-04T00:28:22.614Z,789.34
2018-01-04T00:28:26.970Z,789.33
2018-01-04T00:28:31.361Z,789.35
2018-01-04T00:28:35.538Z,789.32
2018-01-04T00:28:39.773Z,789.34
2018-01-04T00:28:43.905Z,789.33
2018-01-04T00:28:48.136Z,789.31
2018-01-04T00:28:52.368Z,789.31
2018-01-04T00:28:56.605Z,789.35
2018-01-04T00:29:00.827Z,789.32
2018-01-04T00:29:05.357Z,789.32
2018-01-04T00:29:09.594Z,789.35
2018-01-04T00:29:13.717Z,789.33
2018-01-04T00:29:17.774Z,789.32
2018-01-04T00:29:21.896Z,789.29
2018-01-04T00:29:25.803Z,789.33
2018-01-04T00:29:29.923Z,789.34
2018-01-04T00:29:33.956Z,789.32
2018-01-04T00:29:38.408Z,789.33
2018-01-04T00:29:42.421Z,789.32
2018-01-04T00:29:46.551Z,789.32
2018-01-04T00:29:50.787Z,789.29
2018-01-04T00:29:55.023Z,789.34
2018-01-04T00:29:59.162Z,789.33
2018-01-04T00:30:03.420Z,789.33
2018-01-04T00:30:07.465Z,789.33
2018-01-04T00:30:11.599Z,789.33
2018-01-04T00:30:15.829Z,789.32
2018-01-04T00:30:20.064Z,789.29
2018-01-04T00:30:24.200Z,789.32
2018-01-04T00:30:28.434Z,789.32
2018-01-04T00:30:32.662Z,789.3
2018-01-04T00:30:37.012Z,789.33
2018-01-04T00:30:41.233Z,789.33
2018-01-04T00:30:45.362Z,789.35
2018-01-04T00:30:49.708Z,789.32
2018-01-04T00:30:54.060Z,789.34
2018-01-04T00:30:58.408Z,789.34
2018-01-04T00:31:02.640Z,789.32
2018-01-04T00:31:06.882Z,789.32
2018-01-04T00:31:11.116Z,789.37
2018-01-04T00:31:15.129Z,789.33
2018-01-04T00:31:19.369Z,789.32
2018-01-04T00:31:23.536Z,789.33
2018-01-04T00:31:27.783Z,789.33
2018-01-04T00:31:32.027Z,789.3
2018-01-04T00:31:36.066Z,789.34
2018-01-04T00:31:40.310Z,789.3
2018-01-04T00:31:44.448Z,789.34
2018-01-04T00:31:48.790Z,789.31
2018-01-04T00:31:53.112Z,789.33
2018-01-04T00:31:57.336Z,789.33
2018-01-04T00:32:01.832Z,789.34
2018-01-04T00:32:05.755Z,789.32
2018-01-04T00:32:10.012Z,789.36
2018-01-04T00:32:14.229Z,789.32
2018-01-04T00:32:18.237Z,789.34
2018-01-04T00:32:22.361Z,789.33
2018-01-04T00:32:26.476Z,789.34
2018-01-04T00:32:30.854Z,789.33
2018-01-04T00:32:34.976Z,789.3
2018-01-04T00:32:39.206Z,789.28
2018-01-04T00:32:43.436Z,789.29
2018-01-04T00:32:47.786Z,789.31
2018-01-04T00:32:52.012Z,789.27
2018-01-04T00:32:56.146Z,789.34
2018-01-04T00:33:00.379Z,789.33
2018-01-04T00:33:04.911Z,789.32
2018-01-04T00:33:08.948Z,789.31
2018-01-04T00:33:13.187Z,789.33
2018-01-04T00:33:17.415Z,789.33
2018-01-04T00:33:21.639Z,789.32
2018-01-04T00:33:25.860Z,789.34
2018-01-04T00:33:29.977Z,789.34
2018-01-04T00:33:34.107Z,789.36
2018-01-04T00:33:38.337Z,789.32
2018-01-04T00:33:42.474Z,789.32
2018-01-04T00:33:46.591Z,789.37
2018-01-04T00:33:50.882Z,789.28
2018-01-04T00:33:55.123Z,789.26
2018-01-04T00:33:59.352Z,789.26
2018-01-04T00:34:03.598Z,789.3
2018-01-04T00:34:07.945Z,789.3
2018-01-04T00:34:12.096Z,789.3
2018-01-04T00:34:16.100Z,789.3
2018-01-04T00:34:20.331Z,789.25
2018-01-04T00:34:24.356Z,789.26
2018-01-04T00:34:28.478Z,789.29
2018-01-04T00:34:32.728Z,789.3
2018-01-04T00:34:36.654Z,789.27
2018-01-04T00:34:40.773Z,789.23
2018-01-04T00:34:44.894Z,789.22
2018-01-04T00:34:49.014Z,789.22
2018-01-04T00:34:53.347Z,789.23
2018-01-04T00:34:57.585Z,789.27
2018-01-04T00:35:01.719Z,789.27
2018-01-04T00:35:06.062Z,789.27
2018-01-04T00:35:10.068Z,789.28
2018-01-04T00:35:14.183Z,789.28
2018-01-04T00:35:18.408Z,789.27
2018-01-04T00:35:22.597Z,789.27
2018-01-04T00:35:26.741Z,789.24
2018-01-04T00:35:30.996Z,789.28
2018-01-04T00:35:35.343Z,789.27
2018-01-04T00:35:39.361Z,789.27
2018-01-04T00:35:43.393Z,789.28
2018-01-04T00:35:47.743Z,789.22
2018-01-04T00:35:52.082Z,789.22
2018-01-04T00:35:56.223Z,789.26
2018-01-04T00:36:00.354Z,789.26
2018-01-04T00:36:04.899Z,789.23
2018-01-04T00:36:09.131Z,789.27
2018-01-04T00:36:13.142Z,789.26
2018-01-04T00:36:17.064Z,789.25
2018-01-04T00:36:21.091Z,789.25
2018-01-04T00:36:25.220Z,789.23
2018-01-04T00:36:29.457Z,789.22
2018-01-04T00:36:33.787Z,789.2
2018-01-04T00:36:38.014Z,789.24
2018-01-04T00:36:42.347Z,789.24
2018-01-04T00:36:46.693Z,789.24
2018-01-04T00:36:50.819Z,789.21
2018-01-04T00:36:55.087Z,789.21
2018-01-04T00:36:59.418Z,789.25
2018-01-04T00:37:03.938Z,789.19
2018-01-04T00:37:08.054Z,789.18
2018-01-04T00:37:12.395Z,789.16
2018-01-04T00:37:16.629Z,789.22
2018-01-04T00:37:20.858Z,789.21
2018-01-04T00:37:25.209Z,789.25
2018-01-04T00:37:29.560Z,789.23
2018-01-04T00:37:33.668Z,789.2
2018-01-04T00:37:37.894Z,789.19
2018-01-04T00:37:42.227Z,789.2
2018-01-04T00:37:46.332Z,789.22
2018-01-04T00:37:50.678Z,789.21
2018-01-04T00:37:54.809Z,789.19
2018-01-04T00:37:59.032Z,789.21
2018-01-04T00:38:03.621Z,789.24
2018-01-04T00:38:07.849Z,789.22
2018-01-04T00:38:12.202Z,789.21
2018-01-04T00:38:16.246Z,789.23
2018-01-04T00:38:20.381Z,789.2
2018-01-04T00:38:24.402Z,789.22
2018-01-04T00:38:28.525Z,789.2
2018-01-04T00:38:32.664Z,789.21
2018-01-04T00:38:36.894Z,789.23
2018-01-04T00:38:41.225Z,789.22
2018-01-04T00:38:45.449Z,789.21
2018-01-04T00:38:49.481Z,789.19
2018-01-04T00:38:53.819Z,789.23
2018-01-04T00:38:58.157Z,789.2
2018-01-04T00:39:02.575Z,789.23
2018-01-04T00:39:06.709Z,789.22
2018-01-04T00:39:10.966Z,789.16
2018-01-04T00:39:15.083Z,789.2
2018-01-04T00:39:19.109Z,789.22
2018-01-04T00:39:23.324Z,789.2
2018-01-04T00:39:27.461Z,789.17
2018-01-04T00:39:31.601Z,789.14
2018-01-04T00:39:35.850Z,789.24
2018-01-04T00:39:39.980Z,789.19
2018-01-04T00:39:44.316Z,789.21
2018-01-04T00:39:48.661Z,789.21
2018-01-04T00:39:52.784Z,789.22
2018-01-04T00:39:57.020Z,789.19
2018-01-04T00:40:01.152Z,789.18
2018-01-04T00:40:05.538Z,789.24
2018-01-04T00:40:09.771Z,789.19
2018-01-04T00:40:13.907Z,789.2
2018-01-04T00:40:17.960Z,789.19
2018-01-04T00:40:22.166Z,789.14
2018-01-04T00:40:26.413Z,789.16
2018-01-04T00:40:30.958Z,789.15
2018-01-04T00:40:35.286Z,789.21
2018-01-04T00:40:39.316Z,789.16
2018-01-04T00:40:43.565Z,789.15
2018-01-04T00:40:47.919Z,789.21
2018-01-04T00:40:52.256Z,789.2
2018-01-04T00:40:56.315Z,789.17
2018-01-04T00:41:00.432Z,789.13
2018-01-04T00:41:05.009Z,789.16
2018-01-04T00:41:09.391Z,789.11
2018-01-04T00:41:13.636Z,789.17
2018-01-04T00:41:17.858Z,789.17
2018-01-04T00:41:22.071Z,789.2
2018-01-04T00:41:26.398Z,789.2
2018-01-04T00:41:30.638Z,789.18
2018-01-04T00:41:34.792Z,789.21
2018-01-04T00:41:38.602Z,789.2
2018-01-04T00:41:42.942Z,789.19
2018-01-04T00:41:47.270Z,789.16
2018-01-04T00:41:51.423Z,789.18
2018-01-04T00:41:55.669Z,789.18
2018-01-04T00:41:59.803Z,789.23
2018-01-04T00:42:03.921Z,789.21
2018-01-04T00:42:07.943Z,789.21
2018-01-04T00:42:12.165Z,789.2
2018-01-04T00:42:16.086Z,789.22
2018-01-04T00:42:20.422Z,789.19
2018-01-04T00:42:24.758Z,789.2
2018-01-04T00:42:28.986Z,789.19
2018-01-04T00:42:33.115Z,789.15
2018-01-04T00:42:37.150Z,789.12
2018-01-04T00:42:41.382Z,789.17
2018-01-04T00:42:45.298Z,789.13
2018-01-04T00:42:49.528Z,789.16
2018-01-04T00:42:53.663Z,789.18
2018-01-04T00:42:57.899Z,789.18
2018-01-04T00:43:02.148Z,789.15
2018-01-04T00:43:06.387Z,789.18
2018-01-04T00:43:10.728Z,789.18
2018-01-04T00:43:14.959Z,789.14
2018-01-04T00:43:19.209Z,789.17
2018-01-04T00:43:23.423Z,789.17
2018-01-04T00:43:27.755Z,789.15
2018-01-04T00:43:32.008Z,789.17
2018-01-04T00:43:36.176Z,789.19
2018-01-04T00:43:40.408Z,789.19
2018-01-04T00:43:44.641Z,789.17
2018-01-04T00:43:48.976Z,789.16
2018-01-04T00:43:53.303Z,789.17
2018-01-04T00:43:57.634Z,789.15
2018-01-04T00:44:01.966Z,789.15
2018-01-04T00:44:06.254Z,789.12
2018-01-04T00:44:10.164Z,789.09
2018-01-04T00:44:14.323Z,789.14
2018-01-04T00:44:18.556Z,789.14
2018-01-04T00:44:22.685Z,789.16
2018-01-04T00:44:26.502Z,789.13
2018-01-04T00:44:30.842Z,789.16
2018-01-04T00:44:34.961Z,789.17
2018-01-04T00:44:39.184Z,789.16
2018-01-04T00:44:43.416Z,789.15
2018-01-04T00:44:47.660Z,789.16
2018-01-04T00:44:52.011Z,789.11
2018-01-04T00:44:56.354Z,789.17
2018-01-04T00:45:00.471Z,789.19
2018-01-04T00:45:04.709Z,789.16
2018-01-04T00:45:08.836Z,789.16
2018-01-04T00:45:13.139Z,789.15
2018-01-04T00:45:17.272Z,789.15
2018-01-04T00:45:21.606Z,789.14
2018-01-04T00:45:25.829Z,789.19
2018-01-04T00:45:29.845Z,789.16
2018-01-04T00:45:33.961Z,789.14
2018-01-04T00:45:38.074Z,789.13
2018-01-04T00:45:42.000Z,789.14
2018-01-04T00:45:46.168Z,789.12
2018-01-04T00:45:50.496Z,789.13
2018-01-04T00:45:54.851Z,789.13
2018-01-04T00:45:59.090Z,789.11
2018-01-04T00:46:03.610Z,789.13
2018-01-04T00:46:07.742Z,789.13
2018-01-04T00:46:12.104Z,789.13
2018-01-04T00:46:16.441Z,789.14
2018-01-04T00:46:20.460Z,789.15
2018-01-04T00:46:24.693Z,789.13
2018-01-04T00:46:28.823Z,789.15
2018-01-04T00:46:33.172Z,789.11
2018-01-04T00:46:37.301Z,789.09
2018-01-04T00:46:41.422Z,789.11
2018-01-04T00:46:45.444Z,789.12
2018-01-04T00:46:49.678Z,789.09
2018-01-04T00:46:53.906Z,789.07
2018-01-04T00:46:58.254Z,789.12
2018-01-04T00:47:02.840Z,789.12
2018-01-04T00:47:06.970Z,789.09
2018-01-04T00:47:11.163Z,789.08
2018-01-04T00:47:15.175Z,789.11
2018-01-04T00:47:19.400Z,789.06
2018-01-04T00:47:23.620Z,789.12
2018-01-04T00:47:27.746Z,789.15
2018-01-04T00:47:31.773Z,789.14
2018-01-04T00:47:36.104Z,789.14
2018-01-04T00:47:40.339Z,789.14
2018-01-04T00:47:44.563Z,789.15
2018-01-04T00:47:48.798Z,789.12
2018-01-04T00:47:52.926Z,789.09
2018-01-04T00:47:57.276Z,789.13
2018-01-04T00:48:01.412Z,789.12
2018-01-04T00:48:05.595Z,789.15
2018-01-04T00:48:09.935Z,789.14
2018-01-04T00:48:14.058Z,789.12
2018-01-04T00:48:18.283Z,789.12
2018-01-04T00:48:22.404Z,789.12
2018-01-04T00:48:26.525Z,789.13
2018-01-04T00:48:30.758Z,789.12
2018-01-04T00:48:34.990Z,789.1
2018-01-04T00:48:39.111Z,789.05
2018-01-04T00:48:43.336Z,789.05
2018-01-04T00:48:47.550Z,789.07
2018-01-04T00:48:51.778Z,789.06
2018-01-04T00:48:55.904Z,789.1
2018-01-04T00:49:00.131Z,789.09
2018-01-04T00:49:04.314Z,789.07
2018-01-04T00:49:08.463Z,789.06
2018-01-04T00:49:12.692Z,789.09
2018-01-04T00:49:16.920Z,789.1
2018-01-04T00:49:21.259Z,789.08
2018-01-04T00:49:25.492Z,789.11
2018-01-04T00:49:29.614Z,789.11
2018-01-04T00:49:33.850Z,789.07
2018-01-04T00:49:38.077Z,789.08
2018-01-04T00:49:42.312Z,789.09
2018-01-04T00:49:46.550Z,789.1
2018-01-04T00:49:50.567Z,789.1
2018-01-04T00:49:54.908Z,789.08
2018-01-04T00:49:59.130Z,789.09
2018-01-04T00:50:03.366Z,789.11
2018-01-04T00:50:07.608Z,789.09
2018-01-04T00:50:11.949Z,789.08
2018-01-04T00:50:15.971Z,789.1
2018-01-04T00:50:20.192Z,789.09
2018-01-04T00:50:24.531Z,789.08
2018-01-04T00:50:28.710Z,789.05
2018-01-04T00:50:33.049Z,789.07
2018-01-04T00:50:37.291Z,789.06
2018-01-04T00:50:41.626Z,789.03
2018-01-04T00:50:45.743Z,789.01
2018-01-04T00:50:49.540Z,789.04
2018-01-04T00:50:53.666Z,789.01
2018-01-04T00:50:57.804Z,789.05
2018-01-04T00:51:01.935Z,789.03
2018-01-04T00:51:06.287Z,789.03
2018-01-04T00:51:10.521Z,789.01
2018-01-04T00:51:14.559Z,789.01
2018-01-04T00:51:18.809Z,789
2018-01-04T00:51:23.046Z,788.98
2018-01-04T00:51:27.372Z,788.99
2018-01-04T00:51:31.606Z,789.01
2018-01-04T00:51:35.841Z,789.06
2018-01-04T00:51:39.988Z,789.02
2018-01-04T00:51:44.217Z,789.03
2018-01-04T00:51:48.460Z,789.02
2018-01-04T00:51:52.485Z,789.03
2018-01-04T00:51:56.730Z,789.03
2018-01-04T00:52:01.076Z,789.04
2018-01-04T00:52:05.270Z,789.06
2018-01-04T00:52:09.398Z,789
2018-01-04T00:52:13.629Z,789.03
2018-01-04T00:52:17.649Z,789.03
2018-01-04T00:52:21.882Z,789.04
2018-01-04T00:52:25.999Z,789.04
2018-01-04T00:52:30.126Z,789.02